sensor_id;sensor_type;location;lat;lon;timestamp;temperature;humidity
43346;DHT22;28937;51.160;4.146;2023-09-30T00:00:00;17.70;99.90
43346;DHT22;28937;51.160;4.146;2023-09-30T00:02:27;17.70;99.90
43346;DHT22;28937;51.160;4.146;2023-09-30T00:04:53;17.70;99.90
43346;DHT22;28937;51.160;4.146;2023-09-30T00:07:18;17.70;99.90
43346;DHT22;28937;51.160;4.146;2023-09-30T00:09:45;17.60;99.90
43346;DHT22;28937;51.160;4.146;2023-09-30T00:12:10;17.60;99.90
43346;DHT22;28937;51.160;4.146;2023-09-30T00:14:36;17.50;99.90
43346;DHT22;28937;51.160;4.146;2023-09-30T00:17:03;17.60;99.90
43346;DHT22;28937;51.160;4.146;2023-09-30T00:19:28;17.50;99.90
43346;DHT22;28937;51.160;4.146;2023-09-30T00:21:54;17.50;99.90
43346;DHT22;28937;51.160;4.146;2023-09-30T00:24:20;17.50;99.90
43346;DHT22;28937;51.160;4.146;2023-09-30T00:26:45;17.50;99.90
43346;DHT22;28937;51.160;4.146;2023-09-30T00:29:11;17.50;99.90
43346;DHT22;28937;51.160;4.146;2023-09-30T00:31:37;17.50;99.90
43346;DHT22;28937;51.160;4.146;2023-09-30T00:34:02;17.50;99.90
43346;DHT22;28937;51.160;4.146;2023-09-30T00:36:28;17.50;99.90
43346;DHT22;28937;51.160;4.146;2023-09-30T00:38:54;17.40;99.90
43346;DHT22;28937;51.160;4.146;2023-09-30T00:41:19;17.40;99.90
43346;DHT22;28937;51.160;4.146;2023-09-30T00:43:47;17.40;99.90
43346;DHT22;28937;51.160;4.146;2023-09-30T00:46:25;17.40;99.90
43346;DHT22;28937;51.160;4.146;2023-09-30T00:48:53;17.40;99.90
43346;DHT22;28937;51.160;4.146;2023-09-30T00:51:20;17.30;99.90
43346;DHT22;28937;51.160;4.146;2023-09-30T00:53:46;17.40;99.90
43346;DHT22;28937;51.160;4.146;2023-09-30T00:56:11;17.30;99.90
43346;DHT22;28937;51.160;4.146;2023-09-30T00:58:38;17.30;99.90
43346;DHT22;28937;51.160;4.146;2023-09-30T01:01:04;17.30;99.90
43346;DHT22;28937;51.160;4.146;2023-09-30T01:03:30;17.30;99.90
43346;DHT22;28937;51.160;4.146;2023-09-30T01:05:56;17.30;99.90
43346;DHT22;28937;51.160;4.146;2023-09-30T01:08:21;17.20;99.90
43346;DHT22;28937;51.160;4.146;2023-09-30T01:10:47;17.20;99.90
43346;DHT22;28937;51.160;4.146;2023-09-30T01:13:13;17.20;99.90
43346;DHT22;28937;51.160;4.146;2023-09-30T01:15:39;17.20;99.90
43346;DHT22;28937;51.160;4.146;2023-09-30T01:18:05;17.20;99.90
43346;DHT22;28937;51.160;4.146;2023-09-30T01:20:31;17.20;99.90
43346;DHT22;28937;51.160;4.146;2023-09-30T01:22:57;17.10;99.90
43346;DHT22;28937;51.160;4.146;2023-09-30T01:25:24;17.20;99.90
43346;DHT22;28937;51.160;4.146;2023-09-30T01:27:50;17.10;99.90
43346;DHT22;28937;51.160;4.146;2023-09-30T01:30:19;17.10;99.90
43346;DHT22;28937;51.160;4.146;2023-09-30T01:32:45;17.10;99.90
43346;DHT22;28937;51.160;4.146;2023-09-30T01:35:11;17.10;99.90
43346;DHT22;28937;51.160;4.146;2023-09-30T01:37:36;17.10;99.90
43346;DHT22;28937;51.160;4.146;2023-09-30T01:40:03;17.10;99.90
43346;DHT22;28937;51.160;4.146;2023-09-30T01:42:37;17.10;99.90
43346;DHT22;28937;51.160;4.146;2023-09-30T01:45:03;17.00;99.90
43346;DHT22;28937;51.160;4.146;2023-09-30T01:47:29;17.00;99.90
43346;DHT22;28937;51.160;4.146;2023-09-30T01:49:54;17.00;99.90
43346;DHT22;28937;51.160;4.146;2023-09-30T01:52:20;17.00;99.90
43346;DHT22;28937;51.160;4.146;2023-09-30T01:54:45;17.00;99.90
43346;DHT22;28937;51.160;4.146;2023-09-30T01:57:11;17.00;99.90
43346;DHT22;28937;51.160;4.146;2023-09-30T01:59:36;16.90;99.90
43346;DHT22;28937;51.160;4.146;2023-09-30T02:02:02;16.90;99.90
43346;DHT22;28937;51.160;4.146;2023-09-30T02:04:28;16.90;99.90
43346;DHT22;28937;51.160;4.146;2023-09-30T02:06:54;16.90;99.90
43346;DHT22;28937;51.160;4.146;2023-09-30T02:09:20;16.80;99.90
43346;DHT22;28937;51.160;4.146;2023-09-30T02:11:45;16.90;99.90
43346;DHT22;28937;51.160;4.146;2023-09-30T02:14:11;16.80;99.90
43346;DHT22;28937;51.160;4.146;2023-09-30T02:16:38;16.80;99.90
43346;DHT22;28937;51.160;4.146;2023-09-30T02:19:04;16.90;99.90
43346;DHT22;28937;51.160;4.146;2023-09-30T02:21:29;16.80;99.90
43346;DHT22;28937;51.160;4.146;2023-09-30T02:23:55;16.80;99.90
43346;DHT22;28937;51.160;4.146;2023-09-30T02:26:21;16.80;99.90
43346;DHT22;28937;51.160;4.146;2023-09-30T02:28:48;16.80;99.90
43346;DHT22;28937;51.160;4.146;2023-09-30T02:31:13;16.80;99.90
43346;DHT22;28937;51.160;4.146;2023-09-30T02:33:39;16.80;99.90
43346;DHT22;28937;51.160;4.146;2023-09-30T02:36:08;16.80;99.90
43346;DHT22;28937;51.160;4.146;2023-09-30T02:38:36;16.80;99.90
43346;DHT22;28937;51.160;4.146;2023-09-30T02:41:03;16.80;99.90
43346;DHT22;28937;51.160;4.146;2023-09-30T02:43:28;16.80;99.90
43346;DHT22;28937;51.160;4.146;2023-09-30T02:45:54;16.80;99.90
43346;DHT22;28937;51.160;4.146;2023-09-30T02:48:20;16.80;99.90
43346;DHT22;28937;51.160;4.146;2023-09-30T02:50:45;16.80;99.90
43346;DHT22;28937;51.160;4.146;2023-09-30T02:53:12;16.80;99.90
43346;DHT22;28937;51.160;4.146;2023-09-30T02:55:41;16.80;99.90
43346;DHT22;28937;51.160;4.146;2023-09-30T02:58:08;16.70;99.90
43346;DHT22;28937;51.160;4.146;2023-09-30T03:00:35;16.70;99.90
43346;DHT22;28937;51.160;4.146;2023-09-30T03:03:01;16.70;99.90
43346;DHT22;28937;51.160;4.146;2023-09-30T03:05:27;16.80;99.90
43346;DHT22;28937;51.160;4.146;2023-09-30T03:07:56;16.70;99.90
43346;DHT22;28937;51.160;4.146;2023-09-30T03:10:22;16.80;99.90
43346;DHT22;28937;51.160;4.146;2023-09-30T03:12:52;16.70;99.90
43346;DHT22;28937;51.160;4.146;2023-09-30T03:15:18;16.80;99.90
43346;DHT22;28937;51.160;4.146;2023-09-30T03:17:44;16.70;99.90
43346;DHT22;28937;51.160;4.146;2023-09-30T03:20:10;16.70;99.90
43346;DHT22;28937;51.160;4.146;2023-09-30T03:22:41;16.70;99.90
43346;DHT22;28937;51.160;4.146;2023-09-30T03:25:09;16.60;99.90
43346;DHT22;28937;51.160;4.146;2023-09-30T03:27:37;16.60;99.90
43346;DHT22;28937;51.160;4.146;2023-09-30T03:30:04;16.60;99.90
43346;DHT22;28937;51.160;4.146;2023-09-30T03:32:31;16.60;99.90
43346;DHT22;28937;51.160;4.146;2023-09-30T03:34:59;16.70;99.90
43346;DHT22;28937;51.160;4.146;2023-09-30T03:37:26;16.70;99.90
43346;DHT22;28937;51.160;4.146;2023-09-30T03:39:55;16.60;99.90
43346;DHT22;28937;51.160;4.146;2023-09-30T03:42:20;16.70;99.90
43346;DHT22;28937;51.160;4.146;2023-09-30T03:44:47;16.60;99.90
43346;DHT22;28937;51.160;4.146;2023-09-30T03:47:14;16.60;99.90
43346;DHT22;28937;51.160;4.146;2023-09-30T03:49:41;16.60;99.90
43346;DHT22;28937;51.160;4.146;2023-09-30T03:52:08;16.60;99.90
43346;DHT22;28937;51.160;4.146;2023-09-30T03:54:35;16.50;99.90
43346;DHT22;28937;51.160;4.146;2023-09-30T03:57:00;16.50;99.90
43346;DHT22;28937;51.160;4.146;2023-09-30T03:59:26;16.40;99.90
43346;DHT22;28937;51.160;4.146;2023-09-30T04:01:53;16.50;99.90
43346;DHT22;28937;51.160;4.146;2023-09-30T04:04:19;16.40;99.90
43346;DHT22;28937;51.160;4.146;2023-09-30T04:06:47;16.40;99.90
43346;DHT22;28937;51.160;4.146;2023-09-30T04:09:16;16.40;99.90
43346;DHT22;28937;51.160;4.146;2023-09-30T04:11:42;16.40;99.90
43346;DHT22;28937;51.160;4.146;2023-09-30T04:14:08;16.40;99.90
43346;DHT22;28937;51.160;4.146;2023-09-30T04:16:35;16.40;99.90
43346;DHT22;28937;51.160;4.146;2023-09-30T04:19:03;16.30;99.90
43346;DHT22;28937;51.160;4.146;2023-09-30T04:21:29;16.30;99.90
43346;DHT22;28937;51.160;4.146;2023-09-30T04:23:57;16.30;99.90
43346;DHT22;28937;51.160;4.146;2023-09-30T04:26:23;16.20;99.90
43346;DHT22;28937;51.160;4.146;2023-09-30T04:28:49;16.30;99.90
43346;DHT22;28937;51.160;4.146;2023-09-30T04:31:15;16.20;99.90
43346;DHT22;28937;51.160;4.146;2023-09-30T04:33:41;16.20;99.90
43346;DHT22;28937;51.160;4.146;2023-09-30T04:36:06;16.20;99.90
43346;DHT22;28937;51.160;4.146;2023-09-30T04:38:34;16.20;99.90
43346;DHT22;28937;51.160;4.146;2023-09-30T04:41:03;16.20;99.90
43346;DHT22;28937;51.160;4.146;2023-09-30T04:43:29;16.20;99.90
43346;DHT22;28937;51.160;4.146;2023-09-30T04:45:55;16.20;99.90
43346;DHT22;28937;51.160;4.146;2023-09-30T04:48:23;16.20;99.90
43346;DHT22;28937;51.160;4.146;2023-09-30T04:50:49;16.20;99.90
43346;DHT22;28937;51.160;4.146;2023-09-30T04:53:16;16.10;99.90
43346;DHT22;28937;51.160;4.146;2023-09-30T04:55:44;16.20;99.90
43346;DHT22;28937;51.160;4.146;2023-09-30T04:58:10;16.20;99.90
43346;DHT22;28937;51.160;4.146;2023-09-30T05:00:36;16.10;99.90
43346;DHT22;28937;51.160;4.146;2023-09-30T05:03:02;16.10;99.90
43346;DHT22;28937;51.160;4.146;2023-09-30T05:05:27;16.10;99.90
43346;DHT22;28937;51.160;4.146;2023-09-30T05:07:54;16.10;99.90
43346;DHT22;28937;51.160;4.146;2023-09-30T05:10:20;16.20;99.90
43346;DHT22;28937;51.160;4.146;2023-09-30T05:12:46;16.10;99.90
43346;DHT22;28937;51.160;4.146;2023-09-30T05:15:13;16.10;99.90
43346;DHT22;28937;51.160;4.146;2023-09-30T05:17:45;16.10;99.90
43346;DHT22;28937;51.160;4.146;2023-09-30T05:20:12;16.10;99.90
43346;DHT22;28937;51.160;4.146;2023-09-30T05:22:39;16.10;99.90
43346;DHT22;28937;51.160;4.146;2023-09-30T05:25:11;16.10;99.90
43346;DHT22;28937;51.160;4.146;2023-09-30T05:27:37;16.00;99.90
43346;DHT22;28937;51.160;4.146;2023-09-30T05:30:06;16.10;99.90
43346;DHT22;28937;51.160;4.146;2023-09-30T05:32:33;16.10;99.90
43346;DHT22;28937;51.160;4.146;2023-09-30T05:35:00;16.00;99.90
43346;DHT22;28937;51.160;4.146;2023-09-30T05:37:28;16.10;99.90
43346;DHT22;28937;51.160;4.146;2023-09-30T05:39:54;16.00;99.90
43346;DHT22;28937;51.160;4.146;2023-09-30T05:42:19;16.00;99.90
43346;DHT22;28937;51.160;4.146;2023-09-30T05:44:45;16.00;99.90
43346;DHT22;28937;51.160;4.146;2023-09-30T05:47:11;16.00;99.90
43346;DHT22;28937;51.160;4.146;2023-09-30T05:49:37;16.00;99.90
43346;DHT22;28937;51.160;4.146;2023-09-30T05:52:03;16.00;99.90
43346;DHT22;28937;51.160;4.146;2023-09-30T05:54:29;16.00;99.90
43346;DHT22;28937;51.160;4.146;2023-09-30T05:56:55;16.00;99.90
43346;DHT22;28937;51.160;4.146;2023-09-30T05:59:21;16.00;99.90
43346;DHT22;28937;51.160;4.146;2023-09-30T06:01:47;16.00;99.90
43346;DHT22;28937;51.160;4.146;2023-09-30T06:04:12;15.90;99.90
43346;DHT22;28937;51.160;4.146;2023-09-30T06:06:38;16.00;99.90
43346;DHT22;28937;51.160;4.146;2023-09-30T06:09:04;16.00;99.90
43346;DHT22;28937;51.160;4.146;2023-09-30T06:11:33;16.00;99.90
43346;DHT22;28937;51.160;4.146;2023-09-30T06:13:59;15.90;99.90
43346;DHT22;28937;51.160;4.146;2023-09-30T06:16:27;16.00;99.90
43346;DHT22;28937;51.160;4.146;2023-09-30T06:18:55;16.20;99.90
43346;DHT22;28937;51.160;4.146;2023-09-30T06:21:21;16.40;99.90
43346;DHT22;28937;51.160;4.146;2023-09-30T06:23:48;16.50;99.90
43346;DHT22;28937;51.160;4.146;2023-09-30T06:26:14;16.60;99.90
43346;DHT22;28937;51.160;4.146;2023-09-30T06:28:42;16.60;99.90
43346;DHT22;28937;51.160;4.146;2023-09-30T06:31:08;16.70;99.90
43346;DHT22;28937;51.160;4.146;2023-09-30T06:33:39;16.70;99.90
43346;DHT22;28937;51.160;4.146;2023-09-30T06:36:09;16.70;99.90
43346;DHT22;28937;51.160;4.146;2023-09-30T06:38:34;16.70;99.90
43346;DHT22;28937;51.160;4.146;2023-09-30T06:41:02;16.80;99.90
43346;DHT22;28937;51.160;4.146;2023-09-30T06:43:27;16.80;99.90
43346;DHT22;28937;51.160;4.146;2023-09-30T06:45:53;16.80;99.90
43346;DHT22;28937;51.160;4.146;2023-09-30T06:48:20;16.80;99.90
43346;DHT22;28937;51.160;4.146;2023-09-30T06:50:47;16.80;99.90
43346;DHT22;28937;51.160;4.146;2023-09-30T06:53:14;16.90;99.90
43346;DHT22;28937;51.160;4.146;2023-09-30T06:55:42;16.80;99.90
43346;DHT22;28937;51.160;4.146;2023-09-30T06:58:09;16.90;99.90
43346;DHT22;28937;51.160;4.146;2023-09-30T07:00:42;16.90;99.90
43346;DHT22;28937;51.160;4.146;2023-09-30T07:03:07;16.90;99.90
43346;DHT22;28937;51.160;4.146;2023-09-30T07:05:36;16.90;99.90
43346;DHT22;28937;51.160;4.146;2023-09-30T07:08:01;16.90;99.90
43346;DHT22;28937;51.160;4.146;2023-09-30T07:10:28;16.90;99.90
43346;DHT22;28937;51.160;4.146;2023-09-30T07:12:55;16.90;99.90
43346;DHT22;28937;51.160;4.146;2023-09-30T07:15:20;16.90;99.90
43346;DHT22;28937;51.160;4.146;2023-09-30T07:17:46;16.80;99.90
43346;DHT22;28937;51.160;4.146;2023-09-30T07:20:13;16.80;99.90
43346;DHT22;28937;51.160;4.146;2023-09-30T07:22:39;16.80;99.90
43346;DHT22;28937;51.160;4.146;2023-09-30T07:25:06;16.80;99.90
43346;DHT22;28937;51.160;4.146;2023-09-30T07:27:32;16.70;99.90
43346;DHT22;28937;51.160;4.146;2023-09-30T07:29:57;17.00;99.90
43346;DHT22;28937;51.160;4.146;2023-09-30T07:32:23;17.10;99.90
43346;DHT22;28937;51.160;4.146;2023-09-30T07:34:51;17.30;99.90
43346;DHT22;28937;51.160;4.146;2023-09-30T07:37:17;17.40;99.90
43346;DHT22;28937;51.160;4.146;2023-09-30T07:39:44;17.40;99.90
43346;DHT22;28937;51.160;4.146;2023-09-30T07:42:10;17.50;99.90
43346;DHT22;28937;51.160;4.146;2023-09-30T07:44:35;17.50;99.90
43346;DHT22;28937;51.160;4.146;2023-09-30T07:47:03;17.40;99.90
43346;DHT22;28937;51.160;4.146;2023-09-30T07:49:29;17.40;99.90
43346;DHT22;28937;51.160;4.146;2023-09-30T07:51:55;17.40;99.90
43346;DHT22;28937;51.160;4.146;2023-09-30T07:54:21;17.40;99.90
43346;DHT22;28937;51.160;4.146;2023-09-30T07:56:46;17.40;99.90
43346;DHT22;28937;51.160;4.146;2023-09-30T07:59:12;17.40;99.90
43346;DHT22;28937;51.160;4.146;2023-09-30T08:01:39;17.40;99.90
43346;DHT22;28937;51.160;4.146;2023-09-30T08:04:04;17.40;99.90
43346;DHT22;28937;51.160;4.146;2023-09-30T08:06:30;17.30;99.90
43346;DHT22;28937;51.160;4.146;2023-09-30T08:08:56;17.30;99.90
43346;DHT22;28937;51.160;4.146;2023-09-30T08:11:22;17.30;99.90
43346;DHT22;28937;51.160;4.146;2023-09-30T08:13:47;17.30;99.90
43346;DHT22;28937;51.160;4.146;2023-09-30T08:16:16;17.30;99.90
43346;DHT22;28937;51.160;4.146;2023-09-30T08:18:41;17.30;99.90
43346;DHT22;28937;51.160;4.146;2023-09-30T08:21:10;17.30;99.90
43346;DHT22;28937;51.160;4.146;2023-09-30T08:23:37;17.40;99.90
43346;DHT22;28937;51.160;4.146;2023-09-30T08:26:05;17.40;99.90
43346;DHT22;28937;51.160;4.146;2023-09-30T08:28:31;17.40;99.90
43346;DHT22;28937;51.160;4.146;2023-09-30T08:31:02;17.40;99.90
43346;DHT22;28937;51.160;4.146;2023-09-30T08:33:28;17.40;99.90
43346;DHT22;28937;51.160;4.146;2023-09-30T08:35:56;17.40;99.90
43346;DHT22;28937;51.160;4.146;2023-09-30T08:38:23;17.40;99.90
43346;DHT22;28937;51.160;4.146;2023-09-30T08:40:52;17.40;99.90
43346;DHT22;28937;51.160;4.146;2023-09-30T08:43:19;17.50;99.90
43346;DHT22;28937;51.160;4.146;2023-09-30T08:45:50;17.40;99.90
43346;DHT22;28937;51.160;4.146;2023-09-30T08:48:20;17.50;99.90
43346;DHT22;28937;51.160;4.146;2023-09-30T08:50:46;17.50;99.90
43346;DHT22;28937;51.160;4.146;2023-09-30T08:53:16;17.50;99.90
43346;DHT22;28937;51.160;4.146;2023-09-30T08:55:44;17.50;99.90
43346;DHT22;28937;51.160;4.146;2023-09-30T08:58:12;17.50;99.90
43346;DHT22;28937;51.160;4.146;2023-09-30T09:00:42;17.60;99.90
43346;DHT22;28937;51.160;4.146;2023-09-30T09:03:08;17.60;99.90
43346;DHT22;28937;51.160;4.146;2023-09-30T09:05:34;17.70;99.90
43346;DHT22;28937;51.160;4.146;2023-09-30T09:08:00;17.70;99.90
43346;DHT22;28937;51.160;4.146;2023-09-30T09:10:25;17.70;99.90
43346;DHT22;28937;51.160;4.146;2023-09-30T09:12:56;17.70;99.90
43346;DHT22;28937;51.160;4.146;2023-09-30T09:15:28;17.70;99.90
43346;DHT22;28937;51.160;4.146;2023-09-30T09:17:55;17.70;99.90
43346;DHT22;28937;51.160;4.146;2023-09-30T09:20:22;17.80;99.90
43346;DHT22;28937;51.160;4.146;2023-09-30T09:22:50;17.80;99.90
43346;DHT22;28937;51.160;4.146;2023-09-30T09:25:21;17.80;99.90
43346;DHT22;28937;51.160;4.146;2023-09-30T09:27:49;17.90;99.90
43346;DHT22;28937;51.160;4.146;2023-09-30T09:30:25;17.80;99.90
43346;DHT22;28937;51.160;4.146;2023-09-30T09:33:11;17.90;99.90
43346;DHT22;28937;51.160;4.146;2023-09-30T09:35:37;17.90;99.90
43346;DHT22;28937;51.160;4.146;2023-09-30T09:38:07;17.90;99.90
43346;DHT22;28937;51.160;4.146;2023-09-30T09:40:37;17.90;99.90
43346;DHT22;28937;51.160;4.146;2023-09-30T09:43:06;17.90;99.90
43346;DHT22;28937;51.160;4.146;2023-09-30T09:45:37;17.90;99.90
43346;DHT22;28937;51.160;4.146;2023-09-30T09:48:04;17.90;99.90
43346;DHT22;28937;51.160;4.146;2023-09-30T09:50:30;17.90;99.90
43346;DHT22;28937;51.160;4.146;2023-09-30T09:52:58;18.00;99.90
43346;DHT22;28937;51.160;4.146;2023-09-30T09:55:26;18.00;99.90
43346;DHT22;28937;51.160;4.146;2023-09-30T09:57:53;18.00;99.90
43346;DHT22;28937;51.160;4.146;2023-09-30T10:00:22;18.10;99.90
43346;DHT22;28937;51.160;4.146;2023-09-30T10:02:49;18.10;99.90
43346;DHT22;28937;51.160;4.146;2023-09-30T10:05:16;18.10;99.90
43346;DHT22;28937;51.160;4.146;2023-09-30T10:07:54;18.10;99.90
43346;DHT22;28937;51.160;4.146;2023-09-30T10:10:23;18.20;99.90
43346;DHT22;28937;51.160;4.146;2023-09-30T10:12:50;18.20;99.90
43346;DHT22;28937;51.160;4.146;2023-09-30T10:18:02;18.20;99.90
43346;DHT22;28937;51.160;4.146;2023-09-30T10:20:41;18.20;99.90
43346;DHT22;28937;51.160;4.146;2023-09-30T10:23:26;18.30;99.90
43346;DHT22;28937;51.160;4.146;2023-09-30T10:28:46;18.30;99.90
43346;DHT22;28937;51.160;4.146;2023-09-30T10:31:23;18.30;99.90
43346;DHT22;28937;51.160;4.146;2023-09-30T10:38:57;18.40;99.90
43346;DHT22;28937;51.160;4.146;2023-09-30T10:46:52;18.40;99.90
43346;DHT22;28937;51.160;4.146;2023-09-30T10:49:30;18.50;99.90
43346;DHT22;28937;51.160;4.146;2023-09-30T10:51:59;18.50;99.90
43346;DHT22;28937;51.160;4.146;2023-09-30T10:54:30;18.50;99.90
43346;DHT22;28937;51.160;4.146;2023-09-30T10:56:57;18.50;99.90
43346;DHT22;28937;51.160;4.146;2023-09-30T10:59:29;18.50;99.90
43346;DHT22;28937;51.160;4.146;2023-09-30T11:02:00;18.60;99.90
43346;DHT22;28937;51.160;4.146;2023-09-30T11:04:26;18.60;99.90
43346;DHT22;28937;51.160;4.146;2023-09-30T11:06:55;18.60;99.90
43346;DHT22;28937;51.160;4.146;2023-09-30T11:09:22;18.60;99.90
43346;DHT22;28937;51.160;4.146;2023-09-30T11:11:50;18.60;99.90
43346;DHT22;28937;51.160;4.146;2023-09-30T11:14:26;18.60;99.90
43346;DHT22;28937;51.160;4.146;2023-09-30T11:16:54;18.70;99.90
43346;DHT22;28937;51.160;4.146;2023-09-30T11:19:21;18.70;99.90
43346;DHT22;28937;51.160;4.146;2023-09-30T11:21:52;18.80;99.90
43346;DHT22;28937;51.160;4.146;2023-09-30T11:24:18;18.70;99.90
43346;DHT22;28937;51.160;4.146;2023-09-30T11:26:45;18.80;99.90
43346;DHT22;28937;51.160;4.146;2023-09-30T11:31:42;18.80;99.90
43346;DHT22;28937;51.160;4.146;2023-09-30T11:34:09;18.80;99.90
43346;DHT22;28937;51.160;4.146;2023-09-30T11:36:39;18.90;99.90
43346;DHT22;28937;51.160;4.146;2023-09-30T11:39:05;18.90;99.90
43346;DHT22;28937;51.160;4.146;2023-09-30T11:41:36;18.90;99.90
43346;DHT22;28937;51.160;4.146;2023-09-30T11:44:06;18.90;99.90
43346;DHT22;28937;51.160;4.146;2023-09-30T11:47:00;18.90;99.90
43346;DHT22;28937;51.160;4.146;2023-09-30T11:49:38;19.00;99.90
43346;DHT22;28937;51.160;4.146;2023-09-30T11:52:07;19.00;99.90
43346;DHT22;28937;51.160;4.146;2023-09-30T11:54:34;19.00;99.90
43346;DHT22;28937;51.160;4.146;2023-09-30T11:57:00;18.90;99.90
43346;DHT22;28937;51.160;4.146;2023-09-30T11:59:27;19.00;99.90
43346;DHT22;28937;51.160;4.146;2023-09-30T12:01:53;19.00;99.90
43346;DHT22;28937;51.160;4.146;2023-09-30T12:04:20;19.00;99.90
43346;DHT22;28937;51.160;4.146;2023-09-30T12:06:46;19.00;99.90
43346;DHT22;28937;51.160;4.146;2023-09-30T12:09:18;19.00;99.90
43346;DHT22;28937;51.160;4.146;2023-09-30T12:11:48;19.00;99.90
43346;DHT22;28937;51.160;4.146;2023-09-30T12:14:14;19.00;99.90
43346;DHT22;28937;51.160;4.146;2023-09-30T12:16:41;19.10;99.90
43346;DHT22;28937;51.160;4.146;2023-09-30T12:19:07;19.00;99.90
43346;DHT22;28937;51.160;4.146;2023-09-30T12:21:34;19.10;99.90
43346;DHT22;28937;51.160;4.146;2023-09-30T12:24:00;19.10;99.90
43346;DHT22;28937;51.160;4.146;2023-09-30T12:26:27;19.10;99.90
43346;DHT22;28937;51.160;4.146;2023-09-30T12:28:52;19.10;99.90
43346;DHT22;28937;51.160;4.146;2023-09-30T12:31:18;19.10;99.90
43346;DHT22;28937;51.160;4.146;2023-09-30T12:33:45;19.20;99.90
43346;DHT22;28937;51.160;4.146;2023-09-30T12:36:16;19.20;99.90
43346;DHT22;28937;51.160;4.146;2023-09-30T12:38:42;19.20;99.90
43346;DHT22;28937;51.160;4.146;2023-09-30T12:41:08;19.20;99.90
43346;DHT22;28937;51.160;4.146;2023-09-30T12:43:33;19.20;99.90
43346;DHT22;28937;51.160;4.146;2023-09-30T12:45:59;19.20;99.90
43346;DHT22;28937;51.160;4.146;2023-09-30T12:48:25;19.30;99.90
43346;DHT22;28937;51.160;4.146;2023-09-30T12:50:50;19.30;99.90
43346;DHT22;28937;51.160;4.146;2023-09-30T12:53:16;19.30;99.90
43346;DHT22;28937;51.160;4.146;2023-09-30T12:55:42;19.30;99.90
43346;DHT22;28937;51.160;4.146;2023-09-30T12:58:08;19.30;99.90
43346;DHT22;28937;51.160;4.146;2023-09-30T13:00:34;19.40;99.90
43346;DHT22;28937;51.160;4.146;2023-09-30T13:03:02;19.40;99.90
43346;DHT22;28937;51.160;4.146;2023-09-30T13:05:28;19.40;99.90
43346;DHT22;28937;51.160;4.146;2023-09-30T13:07:57;19.40;99.90
43346;DHT22;28937;51.160;4.146;2023-09-30T13:10:23;19.50;99.90
43346;DHT22;28937;51.160;4.146;2023-09-30T13:12:49;19.50;99.90
43346;DHT22;28937;51.160;4.146;2023-09-30T13:15:16;19.50;99.90
43346;DHT22;28937;51.160;4.146;2023-09-30T13:17:44;19.50;99.90
43346;DHT22;28937;51.160;4.146;2023-09-30T13:20:10;19.60;99.90
43346;DHT22;28937;51.160;4.146;2023-09-30T13:22:40;19.60;99.90
43346;DHT22;28937;51.160;4.146;2023-09-30T13:25:06;19.60;99.80
43346;DHT22;28937;51.160;4.146;2023-09-30T13:27:38;19.60;99.90
43346;DHT22;28937;51.160;4.146;2023-09-30T13:30:06;19.70;99.90
43346;DHT22;28937;51.160;4.146;2023-09-30T13:32:33;19.60;99.90
43346;DHT22;28937;51.160;4.146;2023-09-30T13:35:03;19.70;99.90
43346;DHT22;28937;51.160;4.146;2023-09-30T13:37:31;19.70;99.90
43346;DHT22;28937;51.160;4.146;2023-09-30T13:39:59;19.70;99.90
43346;DHT22;28937;51.160;4.146;2023-09-30T13:42:25;19.70;99.90
43346;DHT22;28937;51.160;4.146;2023-09-30T13:44:51;19.80;99.90
43346;DHT22;28937;51.160;4.146;2023-09-30T13:47:16;19.80;99.90
43346;DHT22;28937;51.160;4.146;2023-09-30T13:49:42;19.80;99.90
43346;DHT22;28937;51.160;4.146;2023-09-30T13:52:07;19.80;99.60
43346;DHT22;28937;51.160;4.146;2023-09-30T13:54:33;19.80;99.60
43346;DHT22;28937;51.160;4.146;2023-09-30T13:56:59;19.80;99.40
43346;DHT22;28937;51.160;4.146;2023-09-30T13:59:24;19.90;98.60
43346;DHT22;28937;51.160;4.146;2023-09-30T14:01:51;19.90;99.20
43346;DHT22;28937;51.160;4.146;2023-09-30T14:04:16;19.90;99.30
43346;DHT22;28937;51.160;4.146;2023-09-30T14:06:42;19.90;99.00
43346;DHT22;28937;51.160;4.146;2023-09-30T14:09:08;19.90;99.40
43346;DHT22;28937;51.160;4.146;2023-09-30T14:11:41;20.00;99.30
43346;DHT22;28937;51.160;4.146;2023-09-30T14:14:07;20.00;99.00
43346;DHT22;28937;51.160;4.146;2023-09-30T14:16:35;20.00;98.70
43346;DHT22;28937;51.160;4.146;2023-09-30T14:19:01;20.00;99.00
43346;DHT22;28937;51.160;4.146;2023-09-30T14:21:27;20.00;98.60
43346;DHT22;28937;51.160;4.146;2023-09-30T14:23:54;20.00;98.30
43346;DHT22;28937;51.160;4.146;2023-09-30T14:26:19;20.10;98.60
43346;DHT22;28937;51.160;4.146;2023-09-30T14:28:45;20.10;98.70
43346;DHT22;28937;51.160;4.146;2023-09-30T14:31:10;20.10;98.50
43346;DHT22;28937;51.160;4.146;2023-09-30T14:33:36;20.10;98.30
43346;DHT22;28937;51.160;4.146;2023-09-30T14:36:03;20.10;98.20
43346;DHT22;28937;51.160;4.146;2023-09-30T14:38:31;20.10;98.10
43346;DHT22;28937;51.160;4.146;2023-09-30T14:40:58;20.10;98.30
43346;DHT22;28937;51.160;4.146;2023-09-30T14:43:23;20.10;98.40
43346;DHT22;28937;51.160;4.146;2023-09-30T14:45:49;20.10;98.30
43346;DHT22;28937;51.160;4.146;2023-09-30T14:48:14;20.20;98.30
43346;DHT22;28937;51.160;4.146;2023-09-30T14:50:50;20.20;98.10
43346;DHT22;28937;51.160;4.146;2023-09-30T14:53:16;20.20;98.10
43346;DHT22;28937;51.160;4.146;2023-09-30T14:55:42;20.20;98.40
43346;DHT22;28937;51.160;4.146;2023-09-30T14:58:08;20.20;98.30
43346;DHT22;28937;51.160;4.146;2023-09-30T15:00:34;20.20;98.20
43346;DHT22;28937;51.160;4.146;2023-09-30T15:03:00;20.20;98.30
43346;DHT22;28937;51.160;4.146;2023-09-30T15:05:25;20.30;98.30
43346;DHT22;28937;51.160;4.146;2023-09-30T15:07:51;20.30;98.30
43346;DHT22;28937;51.160;4.146;2023-09-30T15:10:17;20.30;98.10
43346;DHT22;28937;51.160;4.146;2023-09-30T15:12:42;20.30;97.90
43346;DHT22;28937;51.160;4.146;2023-09-30T15:15:08;20.30;97.70
43346;DHT22;28937;51.160;4.146;2023-09-30T15:17:34;20.30;97.90
43346;DHT22;28937;51.160;4.146;2023-09-30T15:20:00;20.30;97.60
43346;DHT22;28937;51.160;4.146;2023-09-30T15:22:26;20.30;97.60
43346;DHT22;28937;51.160;4.146;2023-09-30T15:24:52;20.30;97.80
43346;DHT22;28937;51.160;4.146;2023-09-30T15:27:17;20.30;97.70
43346;DHT22;28937;51.160;4.146;2023-09-30T15:29:44;20.30;97.70
43346;DHT22;28937;51.160;4.146;2023-09-30T15:32:10;20.40;97.70
43346;DHT22;28937;51.160;4.146;2023-09-30T15:34:36;20.30;97.50
43346;DHT22;28937;51.160;4.146;2023-09-30T15:37:06;20.40;97.60
43346;DHT22;28937;51.160;4.146;2023-09-30T15:39:39;20.40;97.60
43346;DHT22;28937;51.160;4.146;2023-09-30T15:42:05;20.40;97.50
43346;DHT22;28937;51.160;4.146;2023-09-30T15:44:31;20.40;97.40
43346;DHT22;28937;51.160;4.146;2023-09-30T15:46:56;20.40;97.40